Time;durP1;ratioP1;P1;durP2;ratioP2;P2;SDS_P1;SDS_P2;PMS_P1;PMS_P2;Temp;Humidity;BMP_temperature;BMP_pressure;BME280_temperature;BME280_humidity;BME280_pressure;Samples;Min_cycle;Max_cycle;Signal;HPM_P1;HPM_P2
2023/01/26 00:00:38;;;;;;;50.87;25.07;;;2.00;99.90;;;;;;7728335;28;20184;-89
2023/01/26 00:04:24;;;;;;;49.37;23.53;;;2.00;99.90;;;;;;7727974;28;20669;-88
2023/01/26 00:08:11;;;;;;;49.03;23.60;;;2.00;99.90;;;;;;7727584;28;20183;-86
2023/01/26 00:11:56;;;;;;;44.20;21.43;;;2.00;99.90;;;;;;7727486;28;20287;-89
2023/01/26 00:15:42;;;;;;;50.90;23.47;;;2.00;99.90;;;;;;7728019;28;20207;-88
2023/01/26 00:19:27;;;;;;;53.57;24.73;;;2.00;99.90;;;;;;7727593;28;20307;-89
2023/01/26 00:23:13;;;;;;;57.00;24.10;;;1.90;99.90;;;;;;7728035;28;20196;-89
2023/01/26 00:26:59;;;;;;;49.20;23.43;;;1.90;99.90;;;;;;7742559;28;20540;-89
2023/01/26 00:30:44;;;;;;;53.50;24.00;;;2.00;99.90;;;;;;7697786;28;20236;-87
2023/01/26 00:34:30;;;;;;;52.13;23.27;;;1.90;99.90;;;;;;7704789;28;20287;-89
2023/01/26 00:38:15;;;;;;;50.20;23.50;;;2.00;99.90;;;;;;7718990;28;20205;-89
2023/01/26 00:42:10;;;;;;;54.17;23.50;;;1.90;99.90;;;;;;7727548;28;20286;-88
2023/01/26 00:45:55;;;;;;;55.60;24.60;;;1.90;99.90;;;;;;7727236;28;20168;-88
2023/01/26 00:49:41;;;;;;;53.83;22.80;;;1.90;99.90;;;;;;7727255;28;20238;-88
2023/01/26 00:53:27;;;;;;;45.57;22.97;;;1.90;99.90;;;;;;7727283;28;20208;-89
2023/01/26 00:57:13;;;;;;;50.87;22.33;;;1.90;99.90;;;;;;7726534;28;20180;-89
2023/01/26 01:00:58;;;;;;;52.80;22.53;;;1.90;99.90;;;;;;7744483;28;20192;-86
2023/01/26 01:04:44;;;;;;;53.50;23.20;;;1.90;99.90;;;;;;7727048;28;20250;-89
2023/01/26 01:08:29;;;;;;;54.63;23.07;;;1.90;99.90;;;;;;7726966;28;20191;-87
2023/01/26 01:12:15;;;;;;;53.27;24.07;;;1.80;99.90;;;;;;7744322;28;20196;-87
2023/01/26 01:16:08;;;;;;;52.40;22.30;;;1.80;99.90;;;;;;7727172;28;20212;-89
2023/01/26 01:19:54;;;;;;;53.40;22.07;;;1.90;99.90;;;;;;7727131;28;20176;-89
2023/01/26 01:23:40;;;;;;;54.80;23.27;;;1.90;99.90;;;;;;7726535;28;20207;-89
2023/01/26 01:27:26;;;;;;;57.53;23.40;;;1.80;99.90;;;;;;7733329;28;20271;-89
2023/01/26 01:31:14;;;;;;;60.10;24.70;;;1.90;99.90;;;;;;7742404;28;20235;-89
2023/01/26 01:35:00;;;;;;;58.70;22.73;;;1.70;99.90;;;;;;7741464;28;20398;-88
2023/01/26 01:38:46;;;;;;;58.93;24.77;;;1.80;99.90;;;;;;7737588;28;20184;-89
2023/01/26 01:42:32;;;;;;;53.20;22.30;;;1.80;99.90;;;;;;7746983;28;20208;-89
2023/01/26 01:46:21;;;;;;;63.93;23.77;;;1.80;99.90;;;;;;7747375;28;20211;-87
2023/01/26 01:50:14;;;;;;;63.00;24.40;;;1.80;99.90;;;;;;7749495;28;20248;-88
2023/01/26 01:54:04;;;;;;;71.93;25.00;;;1.90;99.90;;;;;;7748930;28;20280;-89
2023/01/26 01:57:54;;;;;;;62.73;23.27;;;1.80;99.90;;;;;;7766269;28;20242;-90
2023/01/26 02:01:41;;;;;;;66.07;24.27;;;1.80;99.90;;;;;;7749202;28;20196;-89
2023/01/26 02:05:32;;;;;;;53.20;22.97;;;1.80;99.90;;;;;;7749932;28;20183;-90
2023/01/26 02:13:30;;;;;;;67.27;26.57;;;1.80;99.90;;;;;;7750463;28;20568;-89
2023/01/26 02:17:16;;;;;;;69.27;25.70;;;1.90;99.90;;;;;;7731668;28;20642;-89
2023/01/26 02:21:05;;;;;;;66.00;25.80;;;1.80;99.90;;;;;;7732373;28;20548;-90
2023/01/26 02:24:54;;;;;;;64.30;25.00;;;1.80;99.90;;;;;;7732003;28;20329;-90
2023/01/26 02:28:41;;;;;;;67.53;24.30;;;1.90;99.90;;;;;;7731767;28;20180;-90
2023/01/26 02:32:27;;;;;;;71.77;25.10;;;1.80;99.90;;;;;;7749581;28;20704;-90
2023/01/26 02:36:21;;;;;;;72.13;25.33;;;1.80;99.90;;;;;;7761906;28;20643;-90
2023/01/26 02:40:23;;;;;;;66.70;24.73;;;1.70;99.90;;;;;;7761847;28;20197;-90
2023/01/26 02:44:11;;;;;;;66.07;25.10;;;1.80;99.90;;;;;;7761837;28;20223;-90
2023/01/26 02:47:58;;;;;;;66.43;24.83;;;1.70;99.90;;;;;;7761479;28;20186;-90
2023/01/26 02:51:44;;;;;;;66.10;25.43;;;1.60;99.90;;;;;;7761423;28;20226;-89
2023/01/26 02:55:29;;;;;;;70.70;25.73;;;1.70;99.90;;;;;;7761474;28;20203;-90
2023/01/26 02:59:15;;;;;;;73.63;27.00;;;1.70;99.90;;;;;;7778802;28;20175;-90
2023/01/26 03:03:02;;;;;;;63.83;24.87;;;1.70;99.90;;;;;;7761502;28;20599;-90
2023/01/26 03:06:47;;;;;;;64.07;25.27;;;1.80;99.90;;;;;;7760961;28;20175;-89
2023/01/26 03:10:33;;;;;;;63.70;24.03;;;1.70;99.90;;;;;;7761852;28;20179;-89
2023/01/26 03:14:19;;;;;;;62.00;24.33;;;1.70;99.90;;;;;;7760966;28;20216;-90
2023/01/26 03:30:20;;;;;;;72.53;26.87;;;1.70;99.90;;;;;;7748359;28;20173;-90
2023/01/26 03:34:06;;;;;;;76.70;26.50;;;1.70;99.90;;;;;;7769044;23;20793;-89
2023/01/26 03:37:53;;;;;;;67.90;24.80;;;1.80;99.90;;;;;;7770592;28;20543;-90
2023/01/26 03:57:55;;;;;;;65.40;26.00;;;1.70;99.90;;;;;;7777307;28;20175;-89
2023/01/26 04:09:52;;;;;;;62.70;25.33;;;1.70;99.90;;;;;;7776991;28;20190;-89
2023/01/26 04:21:45;;;;;;;58.87;23.17;;;1.70;99.90;;;;;;7776703;28;20156;-90
2023/01/26 04:25:31;;;;;;;61.43;25.07;;;1.70;99.90;;;;;;7729650;28;20700;-90
2023/01/26 04:29:17;;;;;;;58.33;24.03;;;1.60;99.90;;;;;;7730609;28;20578;-90
2023/01/26 04:33:02;;;;;;;60.60;23.37;;;1.60;99.90;;;;;;7744544;28;20212;-89
2023/01/26 04:36:48;;;;;;;59.87;23.57;;;1.70;99.90;;;;;;7743915;28;20231;-90
2023/01/26 04:40:34;;;;;;;53.20;22.67;;;1.80;99.90;;;;;;7745057;28;20183;-90
2023/01/26 04:44:19;;;;;;;48.17;21.80;;;1.60;99.90;;;;;;7744762;28;20204;-90
2023/01/26 04:48:05;;;;;;;49.27;21.30;;;1.70;99.90;;;;;;7744464;28;20218;-90
2023/01/26 04:51:51;;;;;;;51.70;23.03;;;1.70;99.90;;;;;;7742126;28;20563;-90
2023/01/26 04:55:44;;;;;;;54.57;24.10;;;1.60;99.90;;;;;;7725438;28;20215;-90
2023/01/26 04:59:30;;;;;;;61.83;24.40;;;1.60;99.90;;;;;;7715697;28;20175;-91
2023/01/26 05:03:16;;;;;;;52.00;22.33;;;1.60;99.90;;;;;;7744632;28;20200;-89
2023/01/26 05:07:01;;;;;;;44.30;21.07;;;1.70;99.90;;;;;;7744055;28;20177;-90
2023/01/26 05:10:48;;;;;;;46.50;20.37;;;1.60;99.90;;;;;;7744343;28;20176;-90
2023/01/26 05:14:34;;;;;;;52.77;23.77;;;1.80;99.90;;;;;;7757028;28;20201;-89
2023/01/26 05:18:26;;;;;;;51.67;21.43;;;1.70;99.90;;;;;;7747425;28;20195;-90
2023/01/26 05:22:12;;;;;;;55.80;23.47;;;1.70;99.90;;;;;;7748942;28;20215;-88
2023/01/26 05:25:58;;;;;;;59.43;23.70;;;1.70;99.90;;;;;;7737351;28;20177;-90
2023/01/26 05:29:43;;;;;;;53.87;21.40;;;1.60;99.90;;;;;;7756600;28;20187;-90
2023/01/26 05:33:29;;;;;;;59.17;21.97;;;1.70;99.90;;;;;;7743562;28;20694;-89
2023/01/26 05:37:14;;;;;;;59.87;22.80;;;1.60;99.90;;;;;;7748600;28;20872;-89
2023/01/26 05:41:00;;;;;;;61.03;23.03;;;1.60;99.90;;;;;;7746837;28;20219;-90
2023/01/26 05:44:46;;;;;;;53.77;21.83;;;1.60;99.90;;;;;;7753514;28;20211;-90
2023/01/26 05:48:31;;;;;;;52.67;21.57;;;1.60;99.90;;;;;;7745116;28;20297;-90
2023/01/26 05:52:19;;;;;;;53.03;21.20;;;1.60;99.90;;;;;;7745360;28;20214;-90
2023/01/26 05:56:05;;;;;;;50.07;20.60;;;1.60;99.90;;;;;;7728759;28;20215;-90
2023/01/26 05:59:51;;;;;;;60.73;25.10;;;1.60;99.90;;;;;;7718118;28;20189;-89
2023/01/26 06:03:37;;;;;;;55.13;22.30;;;1.60;99.90;;;;;;7718910;28;20327;-89
2023/01/26 06:07:23;;;;;;;59.30;21.33;;;1.60;99.90;;;;;;7717823;28;20200;-88
2023/01/26 06:11:08;;;;;;;52.50;21.70;;;1.60;99.90;;;;;;7720297;28;20231;-89
2023/01/26 06:14:54;;;;;;;59.80;21.70;;;1.70;99.90;;;;;;7718258;28;20215;-89
2023/01/26 06:18:39;;;;;;;51.80;20.90;;;1.50;99.90;;;;;;7718828;28;20603;-90
2023/01/26 06:22:25;;;;;;;51.57;22.97;;;1.50;99.90;;;;;;7717117;28;20826;-90
2023/01/26 06:26:11;;;;;;;59.30;21.47;;;1.40;99.90;;;;;;7716828;28;20189;-89
2023/01/26 06:29:56;;;;;;;62.63;22.50;;;1.50;99.90;;;;;;7717455;28;20189;-89
2023/01/26 06:33:42;;;;;;;65.60;24.50;;;1.50;99.90;;;;;;7741047;28;20212;-89
2023/01/26 06:37:28;;;;;;;72.90;24.00;;;1.40;99.90;;;;;;7747154;28;20188;-89
2023/01/26 06:41:14;;;;;;;69.53;22.67;;;1.40;99.90;;;;;;7749366;28;20237;-89
2023/01/26 06:45:00;;;;;;;61.87;21.63;;;1.30;99.90;;;;;;7747373;28;20204;-89
2023/01/26 06:48:45;;;;;;;55.70;20.13;;;1.30;99.90;;;;;;7746942;28;20191;-89
2023/01/26 06:52:34;;;;;;;68.97;22.27;;;1.30;99.90;;;;;;7747275;28;20242;-89
2023/01/26 06:56:20;;;;;;;62.30;21.27;;;1.30;99.90;;;;;;7746868;28;20212;-90
2023/01/26 07:00:09;;;;;;;63.13;20.20;;;1.20;99.90;;;;;;7746395;28;20184;-90
2023/01/26 07:03:54;;;;;;;52.87;18.97;;;1.20;99.90;;;;;;7746895;28;20211;-90
2023/01/26 07:07:40;;;;;;;48.73;17.07;;;1.20;99.90;;;;;;7740430;28;20223;-90
2023/01/26 07:11:28;;;;;;;56.37;17.00;;;1.20;99.90;;;;;;7748495;28;20176;-89
2023/01/26 07:15:14;;;;;;;41.43;14.47;;;1.20;99.90;;;;;;7746315;28;20748;-88
2023/01/26 07:19:00;;;;;;;41.53;13.77;;;1.30;99.90;;;;;;7746351;28;20520;-88
2023/01/26 07:22:45;;;;;;;36.20;13.53;;;1.20;99.90;;;;;;7746345;28;20242;-89
2023/01/26 07:26:31;;;;;;;32.17;12.77;;;1.30;99.90;;;;;;7745777;28;20578;-90
2023/01/26 07:30:17;;;;;;;35.73;13.00;;;1.20;99.90;;;;;;7746260;28;20550;-90
2023/01/26 07:34:02;;;;;;;39.37;13.53;;;1.30;99.90;;;;;;7745583;28;20227;-89
2023/01/26 07:37:48;;;;;;;40.10;15.60;;;1.30;99.90;;;;;;7746194;28;20677;-90
2023/01/26 07:41:34;;;;;;;46.37;16.43;;;1.30;99.90;;;;;;7745783;28;20182;-90
2023/01/26 07:45:19;;;;;;;42.60;16.53;;;1.30;99.90;;;;;;7747119;28;20191;-89
2023/01/26 07:49:05;;;;;;;41.27;14.17;;;1.30;99.90;;;;;;7744961;28;20662;-90
2023/01/26 07:52:51;;;;;;;48.60;16.93;;;1.20;99.90;;;;;;7745842;28;20204;-90
2023/01/26 07:56:37;;;;;;;55.87;18.07;;;1.30;99.90;;;;;;7746177;28;20196;-91
2023/01/26 08:00:23;;;;;;;50.73;18.83;;;1.20;99.90;;;;;;7746863;28;20179;-89
2023/01/26 08:04:08;;;;;;;56.10;20.70;;;1.00;99.90;;;;;;7745286;28;20571;-90
2023/01/26 08:08:00;;;;;;;56.60;20.80;;;1.00;99.90;;;;;;7745053;28;20649;-90
2023/01/26 08:11:46;;;;;;;50.10;17.83;;;0.90;99.90;;;;;;7745317;28;20789;-89
2023/01/26 08:15:31;;;;;;;48.27;20.33;;;0.90;99.90;;;;;;7745032;28;20608;-89
2023/01/26 08:19:17;;;;;;;58.97;22.47;;;1.00;99.90;;;;;;7744819;28;21115;-90
2023/01/26 08:23:03;;;;;;;69.37;25.93;;;0.90;99.90;;;;;;7746460;28;20196;-89
2023/01/26 08:26:48;;;;;;;55.27;20.50;;;0.80;99.90;;;;;;7744353;28;20191;-89
2023/01/26 08:30:35;;;;;;;54.50;18.57;;;0.80;99.90;;;;;;7745033;28;20183;-89
2023/01/26 08:34:21;;;;;;;48.67;17.67;;;0.90;99.90;;;;;;7771560;23;20239;-88
2023/01/26 08:38:07;;;;;;;45.17;17.03;;;0.90;99.90;;;;;;7770474;28;20190;-88
2023/01/26 08:41:53;;;;;;;46.10;16.87;;;1.00;99.90;;;;;;7774916;28;20214;-89
2023/01/26 08:45:38;;;;;;;47.57;18.20;;;1.10;99.90;;;;;;7773391;28;20186;-89
2023/01/26 08:49:24;;;;;;;48.70;18.80;;;1.00;99.90;;;;;;7775471;28;20183;-88
2023/01/26 08:53:09;;;;;;;48.27;18.80;;;1.00;99.90;;;;;;7779570;28;20234;-89
2023/01/26 08:56:57;;;;;;;44.57;17.17;;;1.00;99.90;;;;;;7778715;28;20222;-89
2023/01/26 09:00:42;;;;;;;54.40;19.70;;;1.10;99.90;;;;;;7779607;28;20176;-89
2023/01/26 09:04:28;;;;;;;51.80;18.80;;;1.10;99.90;;;;;;7780411;28;20209;-89
2023/01/26 09:08:13;;;;;;;51.00;21.17;;;1.10;99.90;;;;;;7780457;28;20183;-88
2023/01/26 09:11:59;;;;;;;54.83;21.10;;;1.10;99.90;;;;;;7780747;28;20207;-89
2023/01/26 09:15:45;;;;;;;51.37;22.20;;;1.20;99.90;;;;;;7780307;28;20293;-88
2023/01/26 09:19:31;;;;;;;48.73;22.03;;;1.10;99.90;;;;;;7780112;28;20187;-89
2023/01/26 09:23:17;;;;;;;57.20;23.23;;;1.10;99.90;;;;;;7780618;28;20207;-88
2023/01/26 09:27:03;;;;;;;53.00;20.60;;;1.10;99.90;;;;;;7781077;28;20180;-89
2023/01/26 09:30:48;;;;;;;52.23;24.97;;;0.90;99.90;;;;;;7780125;28;20270;-89
2023/01/26 09:34:34;;;;;;;70.40;36.20;;;0.90;99.90;;;;;;7779844;28;20219;-88
2023/01/26 09:38:19;;;;;;;72.27;35.67;;;0.90;99.90;;;;;;7779796;28;20179;-88
2023/01/26 09:42:29;;;;;;;57.57;24.87;;;1.00;99.90;;;;;;7781243;28;20219;-88
2023/01/26 09:46:41;;;;;;;55.43;23.83;;;1.00;99.90;;;;;;7780076;28;20219;-89
2023/01/26 09:50:37;;;;;;;57.93;21.40;;;1.00;99.90;;;;;;7779789;28;20266;-88
2023/01/26 09:54:26;;;;;;;60.57;22.90;;;0.90;99.90;;;;;;7779220;28;20261;-88
2023/01/26 09:58:22;;;;;;;53.67;22.47;;;1.00;99.90;;;;;;7779084;28;20186;-90
2023/01/26 10:02:26;;;;;;;54.57;22.60;;;1.00;99.90;;;;;;7778279;28;20202;-89
2023/01/26 10:06:27;;;;;;;48.63;20.93;;;1.00;99.90;;;;;;7778767;28;20184;-89
2023/01/26 10:10:25;;;;;;;57.37;22.77;;;1.00;99.90;;;;;;7779146;28;20301;-90
2023/01/26 10:14:17;;;;;;;58.63;23.90;;;0.90;99.90;;;;;;7778737;28;20245;-91
2023/01/26 10:18:06;;;;;;;56.97;22.00;;;0.80;99.90;;;;;;7778785;28;20238;-89
2023/01/26 10:21:54;;;;;;;62.73;23.07;;;0.80;99.90;;;;;;7778847;28;20190;-90
2023/01/26 10:25:41;;;;;;;62.40;24.83;;;0.90;99.90;;;;;;7778801;28;20194;-88
2023/01/26 10:29:26;;;;;;;61.00;25.87;;;1.00;99.90;;;;;;7778147;28;20184;-90
2023/01/26 10:33:31;;;;;;;70.50;29.70;;;1.10;99.90;;;;;;7778593;28;20227;-90
2023/01/26 10:37:28;;;;;;;68.20;28.90;;;1.10;99.90;;;;;;7777879;28;20298;-90
2023/01/26 10:41:17;;;;;;;65.17;25.20;;;1.10;99.90;;;;;;7778469;28;20167;-90
2023/01/26 10:45:06;;;;;;;52.23;21.67;;;1.10;99.90;;;;;;7777968;28;20226;-89
2023/01/26 10:48:57;;;;;;;54.10;20.93;;;1.10;99.90;;;;;;7777725;28;20294;-91
2023/01/26 10:53:00;;;;;;;45.20;19.37;;;1.10;99.90;;;;;;7778206;28;20231;-90
2023/01/26 10:56:47;;;;;;;57.73;24.53;;;1.00;99.90;;;;;;7777181;28;20731;-90
2023/01/26 11:00:35;;;;;;;58.17;24.33;;;1.10;99.90;;;;;;7777700;28;20653;-89
2023/01/26 11:04:22;;;;;;;55.70;24.00;;;1.00;99.90;;;;;;7777428;28;20254;-89
2023/01/26 11:08:33;;;;;;;56.13;26.30;;;1.00;99.90;;;;;;7777159;28;20179;-90
2023/01/26 11:12:20;;;;;;;59.03;25.50;;;1.00;99.90;;;;;;7777388;28;20203;-90
2023/01/26 11:16:25;;;;;;;54.30;22.73;;;1.10;99.90;;;;;;7777163;28;20736;-90
2023/01/26 11:20:11;;;;;;;50.03;22.73;;;1.20;99.90;;;;;;7777441;28;20171;-89
2023/01/26 11:24:32;;;;;;;46.57;18.53;;;1.00;99.90;;;;;;7777226;28;20235;-90
2023/01/26 11:28:53;;;;;;;44.07;19.33;;;1.10;99.90;;;;;;7776752;28;20588;-90
2023/01/26 11:32:45;;;;;;;45.67;19.17;;;1.00;99.90;;;;;;7776988;28;20582;-90
2023/01/26 11:36:37;;;;;;;52.13;25.03;;;1.10;99.90;;;;;;7775867;28;20214;-90
2023/01/26 11:40:36;;;;;;;67.60;27.33;;;1.10;99.90;;;;;;7776813;28;20202;-89
2023/01/26 11:44:40;;;;;;;50.17;19.77;;;1.10;99.90;;;;;;7776339;28;20652;-90
2023/01/26 11:49:05;;;;;;;41.67;18.20;;;1.00;99.90;;;;;;7775829;28;20187;-90
2023/01/26 11:53:29;;;;;;;46.53;17.57;;;1.00;99.90;;;;;;7776338;28;20202;-90
2023/01/26 11:57:41;;;;;;;42.77;18.60;;;1.00;99.90;;;;;;7775433;28;20186;-90
2023/01/26 12:01:32;;;;;;;43.03;18.17;;;1.00;99.90;;;;;;7776348;28;20763;-89
2023/01/26 12:05:27;;;;;;;43.50;18.73;;;1.00;99.90;;;;;;7775936;28;20550;-89
2023/01/26 12:09:21;;;;;;;45.10;18.67;;;0.90;99.90;;;;;;7775494;28;20186;-90
2023/01/26 12:13:16;;;;;;;45.03;18.90;;;0.90;99.90;;;;;;7777155;28;20202;-90
2023/01/26 12:17:24;;;;;;;36.03;15.90;;;0.80;99.90;;;;;;7774614;28;20729;-89
2023/01/26 12:21:10;;;;;;;40.90;17.20;;;0.80;99.90;;;;;;7777094;28;20178;-89
2023/01/26 12:25:18;;;;;;;42.67;17.73;;;0.80;99.90;;;;;;7775172;28;20214;-90
2023/01/26 12:29:22;;;;;;;40.77;17.33;;;0.90;99.90;;;;;;7775408;28;20207;-90
2023/01/26 12:33:09;;;;;;;39.27;15.63;;;1.00;99.90;;;;;;7775773;28;20285;-89
2023/01/26 12:37:19;;;;;;;39.30;17.47;;;1.00;99.90;;;;;;7778056;28;20832;-89
2023/01/26 12:41:19;;;;;;;39.37;15.67;;;1.00;99.90;;;;;;7791529;28;20179;-89
2023/01/26 12:45:28;;;;;;;40.47;16.67;;;0.90;99.90;;;;;;7797913;28;20194;-88
2023/01/26 12:49:44;;;;;;;41.23;16.97;;;0.90;99.90;;;;;;7779489;28;20211;-90
2023/01/26 12:53:40;;;;;;;47.30;18.43;;;0.90;99.90;;;;;;7774675;28;20222;-89
2023/01/26 12:57:43;;;;;;;39.27;16.33;;;0.80;99.90;;;;;;7774560;28;20175;-88
2023/01/26 13:01:38;;;;;;;33.93;16.67;;;0.80;99.90;;;;;;7776423;28;20692;-90
2023/01/26 13:05:30;;;;;;;27.93;12.80;;;0.90;99.90;;;;;;7774842;28;20201;-89
2023/01/26 13:09:25;;;;;;;31.17;14.73;;;1.00;99.90;;;;;;7774474;28;20168;-89
2023/01/26 13:13:16;;;;;;;55.10;24.53;;;1.00;99.90;;;;;;7774911;28;20650;-89
2023/01/26 13:17:14;;;;;;;50.30;21.73;;;0.90;99.90;;;;;;7775285;28;20222;-88
2023/01/26 13:21:00;;;;;;;44.20;17.87;;;0.80;99.90;;;;;;7774615;28;20258;-89
2023/01/26 13:24:57;;;;;;;45.03;18.93;;;0.90;99.90;;;;;;7774402;28;20227;-89
2023/01/26 13:28:44;;;;;;;50.43;21.23;;;0.90;99.90;;;;;;7772893;28;20183;-89
2023/01/26 13:32:29;;;;;;;41.97;17.90;;;0.90;99.90;;;;;;7774643;28;20742;-89
2023/01/26 13:36:18;;;;;;;42.97;16.47;;;0.90;99.90;;;;;;7777652;28;20606;-89
2023/01/26 13:40:23;;;;;;;36.77;15.17;;;0.90;99.90;;;;;;7779530;28;20714;-88
2023/01/26 13:44:17;;;;;;;35.70;15.73;;;0.90;99.90;;;;;;7782381;28;20191;-89
2023/01/26 13:48:19;;;;;;;36.20;15.00;;;0.90;99.90;;;;;;7779368;28;20535;-89
2023/01/26 13:52:18;;;;;;;34.63;14.57;;;0.90;99.90;;;;;;7779902;28;20226;-90
2023/01/26 13:56:06;;;;;;;34.93;16.23;;;0.90;99.90;;;;;;7779367;28;20207;-89
2023/01/26 13:59:53;;;;;;;34.23;14.47;;;1.00;99.90;;;;;;7780380;28;20648;-89
2023/01/26 14:03:39;;;;;;;32.60;14.93;;;1.00;99.90;;;;;;7779388;28;20668;-89
2023/01/26 14:07:38;;;;;;;31.10;13.63;;;1.00;99.90;;;;;;7778700;28;20579;-89
2023/01/26 14:11:27;;;;;;;38.93;16.17;;;0.90;99.90;;;;;;7779244;28;20225;-88
2023/01/26 14:15:25;;;;;;;37.87;17.17;;;0.90;99.90;;;;;;7780099;28;20203;-89
2023/01/26 14:19:16;;;;;;;41.10;17.33;;;0.90;99.90;;;;;;7779755;28;20178;-88
2023/01/26 14:23:13;;;;;;;40.53;17.67;;;1.00;99.90;;;;;;7778860;28;20195;-89
2023/01/26 14:26:59;;;;;;;33.50;15.20;;;0.80;99.90;;;;;;7778097;28;20179;-89
2023/01/26 14:30:51;;;;;;;32.13;13.80;;;0.90;99.90;;;;;;7778561;28;20214;-89
2023/01/26 16:21:52;;;;;;;122.10;39.97;;;0.30;99.90;;;;;;8933855;23;20256;-83
2023/01/26 16:25:38;;;;;;;78.73;34.33;;;0.40;99.90;;;;;;7710933;28;20193;-82
2023/01/26 16:29:24;;;;;;;65.10;31.17;;;0.40;99.90;;;;;;7720090;28;20247;-82
2023/01/26 16:33:15;;;;;;;55.43;28.70;;;0.30;99.90;;;;;;7736837;28;20184;-83
2023/01/26 20:02:08;;;;;;;31.63;13.70;;;0.00;99.90;;;;;;8745624;23;20838;-83
2023/01/26 20:05:54;;;;;;;32.07;14.63;;;0.00;99.90;;;;;;7697301;28;20193;-83
2023/01/26 20:09:40;;;;;;;30.97;13.77;;;0.00;99.90;;;;;;7694535;28;20836;-83
2023/01/26 20:13:26;;;;;;;37.80;14.97;;;0.00;99.90;;;;;;7693650;28;20195;-84
2023/01/26 20:17:11;;;;;;;35.87;13.33;;;-0.10;99.90;;;;;;7698850;28;20228;-83
2023/01/26 20:20:58;;;;;;;30.10;13.37;;;-0.10;99.90;;;;;;7695280;28;20204;-84
2023/01/26 20:24:43;;;;;;;33.63;14.67;;;-0.20;99.90;;;;;;7699418;28;20255;-85
2023/01/26 20:28:38;;;;;;;52.80;18.63;;;-0.10;99.90;;;;;;7699584;28;20380;-84
